createdAt,value
2022-08-29T00:00:17.648Z,99429.91
2022-08-29T00:02:49.881Z,99453.00
2022-08-29T00:05:24.875Z,99446.38
2022-08-29T00:07:53.789Z,99442.56
2022-08-29T00:10:23.375Z,99448.44
2022-08-29T00:12:51.975Z,99465.94
2022-08-29T00:15:21.499Z,99479.28
2022-08-29T00:17:50.578Z,99488.22
2022-08-29T00:20:30.438Z,99501.19
2022-08-29T00:23:03.265Z,99501.56
2022-08-29T00:25:32.330Z,99503.19
2022-08-29T00:28:01.236Z,99525.13
2022-08-29T00:30:29.991Z,99510.31
2022-08-29T00:32:58.539Z,99493.44
2022-08-29T00:35:31.243Z,99494.97
2022-08-29T00:38:00.526Z,99483.72
2022-08-29T00:40:33.575Z,99482.59
2022-08-29T00:43:03.094Z,99476.25
2022-08-29T00:45:32.531Z,99474.63
2022-08-29T00:48:06.513Z,99489.44
2022-08-29T00:50:42.000Z,99499.41
2022-08-29T00:53:17.113Z,99507.66
2022-08-29T00:55:50.319Z,99499.16
2022-08-29T00:58:26.681Z,99489.91
2022-08-29T01:00:55.994Z,99510.94
2022-08-29T01:03:24.542Z,99495.66
2022-08-29T01:05:54.687Z,99502.22
2022-08-29T01:08:23.363Z,99489.31
2022-08-29T01:11:10.091Z,99491.25
2022-08-29T01:13:42.988Z,99496.75
2022-08-29T01:16:13.526Z,99478.50
2022-08-29T01:18:45.445Z,99497.38
2022-08-29T01:21:21.778Z,99480.69
2022-08-29T01:24:00.003Z,99488.75
2022-08-29T01:26:31.391Z,99488.94
2022-08-29T01:28:59.916Z,99487.00
2022-08-29T01:31:37.582Z,99469.91
2022-08-29T01:34:21.295Z,99492.78
2022-08-29T01:36:54.365Z,99486.94
2022-08-29T01:39:26.645Z,99495.22
2022-08-29T01:41:59.995Z,99489.91
2022-08-29T01:44:28.565Z,99466.72
2022-08-29T01:47:03.047Z,99484.81
2022-08-29T01:49:34.680Z,99483.28
2022-08-29T01:52:07.773Z,99486.41
2022-08-29T01:54:36.584Z,99495.47
2022-08-29T01:57:12.212Z,99490.13
2022-08-29T01:59:42.046Z,99495.59
2022-08-29T02:02:16.201Z,99490.66
2022-08-29T02:04:45.526Z,99486.16
2022-08-29T02:07:14.415Z,99498.00
2022-08-29T02:09:45.910Z,99503.28
2022-08-29T02:12:16.704Z,99491.84
2022-08-29T02:14:46.332Z,99496.53
2022-08-29T02:17:15.119Z,99507.88
2022-08-29T02:19:44.257Z,99507.69
2022-08-29T02:22:13.179Z,99509.06
2022-08-29T02:24:41.748Z,99502.47
2022-08-29T02:27:12.737Z,99502.09
2022-08-29T02:29:42.633Z,99485.88
2022-08-29T02:32:13.842Z,99493.31
2022-08-29T02:34:44.714Z,99494.88
2022-08-29T02:37:17.784Z,99502.19
2022-08-29T02:39:46.305Z,99491.38
2022-08-29T02:42:14.790Z,99502.75
2022-08-29T02:44:44.674Z,99489.00
2022-08-29T02:47:14.510Z,99503.19
2022-08-29T02:49:43.714Z,99498.06
2022-08-29T02:52:13.017Z,99502.81
2022-08-29T02:54:41.686Z,99498.59
2022-08-29T02:57:10.465Z,99504.53
2022-08-29T02:59:38.979Z,99500.25
2022-08-29T03:02:08.855Z,99511.88
2022-08-29T03:04:37.385Z,99514.50
2022-08-29T03:07:06.540Z,99513.69
2022-08-29T03:09:35.107Z,99511.91
2022-08-29T03:12:03.788Z,99505.50
2022-08-29T03:14:32.277Z,99513.97
2022-08-29T03:17:00.732Z,99512.44
2022-08-29T03:19:30.713Z,99517.38
2022-08-29T03:22:05.811Z,99516.94
2022-08-29T03:24:36.126Z,99516.25
2022-08-29T03:27:04.773Z,99514.81
2022-08-29T03:29:33.286Z,99516.00
2022-08-29T03:32:01.815Z,99512.59
2022-08-29T03:34:33.146Z,99496.38
2022-08-29T03:37:02.065Z,99506.75
2022-08-29T03:39:30.726Z,99508.06
2022-08-29T03:41:59.289Z,99499.75
2022-08-29T03:44:27.740Z,99487.50
2022-08-29T03:46:57.143Z,99492.25
2022-08-29T03:49:25.727Z,99487.50
2022-08-29T03:51:56.329Z,99478.97
2022-08-29T03:54:25.203Z,99493.16
2022-08-29T03:56:54.104Z,99495.44
2022-08-29T03:59:23.009Z,99504.22
2022-08-29T04:05:08.026Z,99499.97
2022-08-29T04:07:45.099Z,99504.41
2022-08-29T04:10:17.593Z,99508.56
2022-08-29T04:12:46.135Z,99512.63
2022-08-29T04:15:15.476Z,99526.72
2022-08-29T04:17:52.827Z,99520.41
2022-08-29T04:20:25.353Z,99517.63
2022-08-29T04:22:57.581Z,99509.53
2022-08-29T04:25:28.485Z,99503.56
2022-08-29T04:27:57.407Z,99528.72
2022-08-29T04:30:28.243Z,99522.44
2022-08-29T04:32:56.918Z,99511.00
2022-08-29T04:35:26.007Z,99512.19
2022-08-29T04:37:56.002Z,99514.28
2022-08-29T04:40:24.917Z,99509.81
2022-08-29T04:42:53.477Z,99517.41
2022-08-29T04:45:23.901Z,99511.16
2022-08-29T04:47:52.755Z,99507.88
2022-08-29T04:50:24.177Z,99500.84
2022-08-29T04:52:58.137Z,99520.13
2022-08-29T04:55:26.761Z,99514.50
2022-08-29T04:57:57.614Z,99508.88
2022-08-29T05:00:30.314Z,99513.81
2022-08-29T05:03:00.358Z,99511.78
2022-08-29T05:05:29.148Z,99526.84
2022-08-29T05:07:58.974Z,99528.84
2022-08-29T05:10:27.509Z,99523.19
2022-08-29T05:12:55.973Z,99512.94
2022-08-29T05:15:24.544Z,99523.53
2022-08-29T05:17:53.439Z,99529.53
2022-08-29T05:20:22.127Z,99542.16
2022-08-29T05:22:50.583Z,99528.28
2022-08-29T05:25:20.589Z,99539.84
2022-08-29T05:27:49.062Z,99549.97
2022-08-29T05:30:34.237Z,99550.88
2022-08-29T05:33:04.782Z,99553.84
2022-08-29T05:35:33.384Z,99517.69
2022-08-29T05:38:08.612Z,99551.22
2022-08-29T05:40:39.768Z,99567.94
2022-08-29T05:43:11.905Z,99575.22
2022-08-29T05:45:41.989Z,99577.84
2022-08-29T05:48:11.040Z,99584.63
2022-08-29T05:50:42.035Z,99589.59
2022-08-29T05:53:10.635Z,99603.13
2022-08-29T05:55:43.115Z,99611.06
2022-08-29T05:58:12.252Z,99612.72
2022-08-29T06:00:42.934Z,99628.25
2022-08-29T06:03:13.065Z,99621.25
2022-08-29T06:05:42.892Z,99640.81
2022-08-29T06:08:11.429Z,99646.41
2022-08-29T06:10:45.464Z,99642.75
2022-08-29T06:13:14.228Z,99649.75
2022-08-29T06:15:44.747Z,99646.25
2022-08-29T06:18:14.084Z,99654.69
2022-08-29T06:20:42.953Z,99675.22
2022-08-29T06:23:11.421Z,99681.31
2022-08-29T06:25:40.419Z,99687.13
2022-08-29T06:28:10.438Z,99691.09
2022-08-29T06:30:39.041Z,99704.00
2022-08-29T06:33:07.657Z,99705.66
2022-08-29T06:35:37.725Z,99710.47
2022-08-29T06:38:09.734Z,99717.06
2022-08-29T06:40:42.028Z,99717.91
2022-08-29T06:43:11.910Z,99732.28
2022-08-29T06:45:42.706Z,99726.50
2022-08-29T06:48:13.934Z,99730.78
2022-08-29T06:50:45.659Z,99731.47
2022-08-29T06:53:27.355Z,99729.44
2022-08-29T06:55:57.229Z,99741.06
2022-08-29T06:58:27.085Z,99741.22
2022-08-29T07:00:55.905Z,99738.22
2022-08-29T07:03:24.551Z,99744.66
2022-08-29T07:05:54.193Z,99746.16
2022-08-29T07:08:23.853Z,99752.28
2022-08-29T07:10:52.451Z,99742.03
2022-08-29T07:13:21.191Z,99741.16
2022-08-29T07:15:51.231Z,99741.59
2022-08-29T07:18:20.332Z,99738.28
2022-08-29T07:20:49.333Z,99744.88
2022-08-29T07:23:17.982Z,99737.22
2022-08-29T07:25:46.551Z,99745.16
2022-08-29T07:28:15.398Z,99732.91
2022-08-29T07:30:44.028Z,99748.09
2022-08-29T07:33:14.141Z,99746.22
2022-08-29T07:35:42.866Z,99753.31
2022-08-29T07:38:11.734Z,99746.13
2022-08-29T07:40:40.575Z,99746.25
2022-08-29T07:43:09.076Z,99749.56
2022-08-29T07:45:40.375Z,99751.69
2022-08-29T07:48:10.292Z,99747.06
2022-08-29T07:50:43.205Z,99736.41
2022-08-29T07:53:11.761Z,99737.50
2022-08-29T07:55:40.258Z,99744.22
2022-08-29T07:58:08.834Z,99739.06
2022-08-29T08:00:37.482Z,99749.69
2022-08-29T08:03:06.954Z,99744.31
2022-08-29T08:05:35.825Z,99756.78
2022-08-29T08:08:14.961Z,99759.50
2022-08-29T08:10:43.954Z,99752.59
2022-08-29T08:13:12.415Z,99761.34
2022-08-29T08:15:41.711Z,99755.31
2022-08-29T08:18:10.631Z,99758.38
2022-08-29T08:20:39.287Z,99747.41
2022-08-29T08:23:09.209Z,99742.59
2022-08-29T08:25:37.720Z,99753.84
2022-08-29T08:28:06.155Z,99744.66
2022-08-29T08:30:35.934Z,99745.47
2022-08-29T08:33:05.089Z,99751.19
2022-08-29T08:35:36.421Z,99767.72
2022-08-29T08:38:10.433Z,99770.97
2022-08-29T08:40:45.111Z,99774.59
2022-08-29T08:43:20.711Z,99785.19
2022-08-29T08:45:57.811Z,99779.78
2022-08-29T08:48:30.614Z,99778.94
2022-08-29T08:51:05.075Z,99785.19
2022-08-29T08:53:39.819Z,99783.38
2022-08-29T08:56:17.581Z,99786.56
2022-08-29T08:58:53.456Z,99788.06
2022-08-29T09:01:26.876Z,99797.81
2022-08-29T09:04:16.380Z,99795.97
2022-08-29T09:06:56.785Z,99800.97
2022-08-29T09:09:38.701Z,99793.31
2022-08-29T09:12:32.611Z,99801.38
2022-08-29T09:15:13.366Z,99807.75
2022-08-29T09:17:47.959Z,99817.41
2022-08-29T09:20:24.484Z,99833.22
2022-08-29T09:23:00.989Z,99825.25
2022-08-29T09:25:32.007Z,99821.22
2022-08-29T09:28:01.928Z,99811.06
2022-08-29T09:30:33.649Z,99839.66
2022-08-29T09:33:05.270Z,99838.31
2022-08-29T09:35:39.915Z,99835.81
2022-08-29T09:38:10.990Z,99841.00
2022-08-29T09:40:49.330Z,99841.97
2022-08-29T09:43:22.024Z,99847.56
2022-08-29T09:46:16.964Z,99837.47
2022-08-29T09:48:47.469Z,99836.97
2022-08-29T09:51:24.653Z,99839.94
2022-08-29T09:53:54.059Z,99849.97
2022-08-29T09:56:26.569Z,99835.56
2022-08-29T09:59:02.123Z,99837.63
2022-08-29T10:01:32.554Z,99841.38
2022-08-29T10:04:09.706Z,99833.88
2022-08-29T10:06:45.275Z,99847.78
2022-08-29T10:09:27.649Z,99846.88
2022-08-29T10:12:01.707Z,99845.09
2022-08-29T10:14:35.570Z,99837.88
2022-08-29T10:17:22.103Z,99835.75
2022-08-29T10:19:51.938Z,99837.84
2022-08-29T10:22:31.085Z,99837.81
2022-08-29T10:25:05.157Z,99839.13
2022-08-29T10:27:44.943Z,99847.63
2022-08-29T10:30:17.537Z,99839.41
2022-08-29T10:33:04.752Z,99833.13
2022-08-29T10:35:38.813Z,99813.03
2022-08-29T10:38:17.317Z,99817.91
2022-08-29T10:40:50.295Z,99815.31
2022-08-29T10:43:38.558Z,99814.09
2022-08-29T10:46:37.253Z,99808.31
2022-08-29T10:49:13.601Z,99822.56
2022-08-29T10:51:50.987Z,99817.41
2022-08-29T10:54:28.439Z,99823.53
2022-08-29T10:56:57.280Z,99807.88
2022-08-29T10:59:32.833Z,99797.59
2022-08-29T11:02:08.707Z,99796.25
2022-08-29T11:04:41.827Z,99787.47
2022-08-29T11:07:16.344Z,99815.31
2022-08-29T11:09:49.444Z,99806.34
2022-08-29T11:12:22.791Z,99796.50
2022-08-29T11:14:57.981Z,99780.78
2022-08-29T11:17:31.165Z,99788.59
2022-08-29T11:20:05.843Z,99784.94
2022-08-29T11:22:41.630Z,99789.25
2022-08-29T11:25:13.751Z,99779.22
2022-08-29T11:27:53.659Z,99780.31
2022-08-29T11:30:30.463Z,99790.06
2022-08-29T11:33:08.078Z,99789.13
2022-08-29T11:35:46.714Z,99795.38
2022-08-29T11:38:37.454Z,99788.94
2022-08-29T11:41:27.538Z,99791.25
2022-08-29T11:44:05.894Z,99790.53
2022-08-29T11:46:40.639Z,99791.13
2022-08-29T11:49:38.757Z,99780.72
2022-08-29T11:52:26.355Z,99775.44
2022-08-29T11:55:16.375Z,99773.16
2022-08-29T11:58:05.676Z,99770.97
2022-08-29T12:00:42.953Z,99768.34
2022-08-29T12:03:51.015Z,99762.16
2022-08-29T12:06:25.846Z,99762.84
2022-08-29T12:09:04.907Z,99756.50
2022-08-29T12:12:17.082Z,99763.22
2022-08-29T12:14:47.210Z,99749.00
2022-08-29T12:18:03.291Z,99752.66
2022-08-29T12:20:42.272Z,99754.88
2022-08-29T12:23:27.774Z,99750.25
2022-08-29T12:26:21.090Z,99753.78
2022-08-29T12:28:58.490Z,99737.06
2022-08-29T12:32:08.532Z,99742.97
2022-08-29T12:34:49.800Z,99754.44
2022-08-29T12:37:30.933Z,99736.03
2022-08-29T12:40:44.333Z,99753.72
2022-08-29T12:43:26.552Z,99745.81
2022-08-29T12:45:56.609Z,99763.22
2022-08-29T12:48:28.280Z,99761.81
2022-08-29T12:50:57.304Z,99761.56
2022-08-29T12:53:27.987Z,99752.13
2022-08-29T12:55:58.687Z,99766.16
2022-08-29T12:58:42.989Z,99755.44
2022-08-29T13:01:27.066Z,99761.41
2022-08-29T13:04:02.036Z,99758.47
2022-08-29T13:06:31.600Z,99758.06
2022-08-29T13:09:00.349Z,99761.06
2022-08-29T13:11:30.612Z,99761.25
2022-08-29T13:14:09.631Z,99759.56
2022-08-29T13:16:40.347Z,99765.34
2022-08-29T13:19:20.653Z,99765.63
2022-08-29T13:21:49.234Z,99762.78
2022-08-29T13:24:20.601Z,99772.28
2022-08-29T13:27:04.606Z,99768.31
2022-08-29T13:29:39.324Z,99771.03
2022-08-29T13:32:20.453Z,99764.00
2022-08-29T13:35:06.567Z,99778.72
2022-08-29T13:37:37.549Z,99778.38
2022-08-29T13:40:31.329Z,99780.66
2022-08-29T13:43:02.254Z,99779.94
2022-08-29T13:45:32.408Z,99784.81
2022-08-29T13:48:12.721Z,99776.25
2022-08-29T13:50:41.795Z,99780.09
2022-08-29T13:53:10.500Z,99780.88
2022-08-29T13:55:41.737Z,99772.47
2022-08-29T13:58:15.106Z,99770.97
2022-08-29T14:00:45.547Z,99776.41
2022-08-29T14:03:17.105Z,99772.94
2022-08-29T14:05:46.173Z,99790.25
2022-08-29T14:08:15.377Z,99781.91
2022-08-29T14:10:43.950Z,99786.47
2022-08-29T14:13:12.881Z,99794.78
2022-08-29T14:15:41.639Z,99790.94
2022-08-29T14:18:11.595Z,99790.75
2022-08-29T14:20:40.403Z,99791.44
2022-08-29T14:23:08.915Z,99804.03
2022-08-29T14:25:37.659Z,99789.03
2022-08-29T14:28:06.358Z,99789.22
2022-08-29T14:30:35.098Z,99800.22
2022-08-29T14:33:03.587Z,99797.03
2022-08-29T14:35:34.835Z,99786.94
2022-08-29T14:38:04.265Z,99798.91
2022-08-29T14:40:37.817Z,99797.72
2022-08-29T14:43:08.947Z,99741.00
2022-08-29T14:45:37.768Z,99809.97
2022-08-29T14:48:07.006Z,99808.59
2022-08-29T14:50:36.904Z,99803.81
2022-08-29T14:53:05.723Z,99800.59
2022-08-29T14:55:34.486Z,99795.44
2022-08-29T14:58:03.008Z,99816.25
2022-08-29T15:00:34.171Z,99803.22
2022-08-29T15:03:02.766Z,99796.84
2022-08-29T15:05:31.858Z,99801.75
2022-08-29T15:08:06.007Z,99799.00
2022-08-29T15:10:35.566Z,99791.19
2022-08-29T15:13:05.363Z,99807.97
2022-08-29T15:15:33.973Z,99795.00
2022-08-29T15:18:04.281Z,99798.09
2022-08-29T15:20:36.614Z,99800.16
2022-08-29T15:23:07.949Z,99801.97
2022-08-29T15:25:36.809Z,99803.59
2022-08-29T15:28:06.976Z,99806.22
2022-08-29T15:30:36.607Z,99789.25
2022-08-29T15:33:05.194Z,99810.63
2022-08-29T15:35:33.837Z,99809.53
2022-08-29T15:38:02.357Z,99803.81
2022-08-29T15:40:32.516Z,99816.66
2022-08-29T15:43:01.154Z,99813.06
2022-08-29T15:45:29.947Z,99811.41
2022-08-29T15:48:00.866Z,99810.69
2022-08-29T15:50:30.388Z,99808.91
2022-08-29T15:52:59.218Z,99817.50
2022-08-29T15:55:28.034Z,99810.16
2022-08-29T15:57:57.988Z,99811.34
2022-08-29T16:00:30.550Z,99807.19
2022-08-29T16:03:04.412Z,99802.84
2022-08-29T16:05:33.877Z,99813.41
2022-08-29T16:08:02.767Z,99813.53
2022-08-29T16:10:31.938Z,99815.19
2022-08-29T16:13:02.717Z,99822.69
2022-08-29T16:15:31.601Z,99831.03
2022-08-29T16:18:01.493Z,99828.94
2022-08-29T16:20:31.218Z,99830.22
2022-08-29T16:23:00.496Z,99828.22
2022-08-29T16:25:31.196Z,99830.88
2022-08-29T16:28:00.080Z,99824.19
2022-08-29T16:30:30.864Z,99829.56
2022-08-29T16:32:59.378Z,99830.38
2022-08-29T16:35:28.533Z,99834.22
2022-08-29T16:38:03.113Z,99831.97
2022-08-29T16:40:32.978Z,99833.66
2022-08-29T16:43:02.573Z,99831.25
2022-08-29T16:45:33.048Z,99836.25
2022-08-29T16:48:01.620Z,99829.31
2022-08-29T16:50:33.245Z,99829.59
2022-08-29T16:53:02.962Z,99832.63
2022-08-29T16:55:31.870Z,99829.16
2022-08-29T16:58:18.167Z,99835.59
2022-08-29T17:00:48.205Z,99833.44
2022-08-29T17:03:20.077Z,99835.31
2022-08-29T17:05:50.059Z,99834.72
2022-08-29T17:08:17.409Z,99832.25
2022-08-29T17:10:44.864Z,99841.34
2022-08-29T17:13:12.854Z,99837.63
2022-08-29T17:15:40.184Z,99843.81
2022-08-29T17:18:10.440Z,99837.44
2022-08-29T17:20:41.432Z,99843.84
2022-08-29T17:23:15.906Z,99849.84
2022-08-29T17:25:44.448Z,99850.69
2022-08-29T17:28:20.235Z,99848.78
2022-08-29T17:30:50.806Z,99846.34
2022-08-29T17:33:21.505Z,99827.00
2022-08-29T17:47:36.648Z,99856.84
2022-08-29T17:50:06.030Z,99860.75
2022-08-29T17:52:34.785Z,99845.09
2022-08-29T17:55:07.190Z,99849.63
2022-08-29T17:57:36.223Z,99852.28
2022-08-29T18:00:07.253Z,99852.69
2022-08-29T18:02:40.429Z,99849.59
2022-08-29T18:05:12.812Z,99859.91
2022-08-29T18:07:42.188Z,99845.25
2022-08-29T18:10:13.128Z,99863.78
2022-08-29T18:12:41.833Z,99863.19
2022-08-29T18:15:11.698Z,99848.38
2022-08-29T18:17:42.188Z,99866.84
2022-08-29T18:20:12.353Z,99863.56
2022-08-29T18:22:42.648Z,99861.91
2022-08-29T18:25:11.842Z,99861.72
2022-08-29T18:27:43.802Z,99858.63
2022-08-29T18:30:14.784Z,99856.94
2022-08-29T18:32:44.782Z,99864.75
2022-08-29T18:35:14.000Z,99857.66
2022-08-29T18:37:42.528Z,99875.75
2022-08-29T18:40:12.228Z,99877.38
2022-08-29T18:42:41.670Z,99847.59
2022-08-29T18:45:11.189Z,99870.59
2022-08-29T18:47:39.667Z,99875.09
2022-08-29T18:50:28.242Z,99871.78
2022-08-29T18:52:56.942Z,99877.53
2022-08-29T18:55:25.659Z,99893.16
2022-08-29T18:57:55.217Z,99881.78
2022-08-29T19:00:25.192Z,99904.38
2022-08-29T19:02:54.415Z,99906.50
2022-08-29T19:05:26.514Z,99901.06
2022-08-29T19:07:55.917Z,99902.63
2022-08-29T19:10:26.536Z,99912.69
2022-08-29T19:12:55.478Z,99915.06
2022-08-29T19:15:26.479Z,99913.84
2022-08-29T19:17:55.870Z,99909.75
2022-08-29T19:20:45.994Z,99903.91
2022-08-29T19:23:14.973Z,99929.72
2022-08-29T19:25:44.579Z,99936.44
2022-08-29T19:28:13.442Z,99936.81
2022-08-29T19:30:42.647Z,99929.69
2022-08-29T19:33:12.468Z,99944.28
2022-08-29T19:35:42.488Z,99939.34
2022-08-29T19:38:12.314Z,99946.59
2022-08-29T19:40:41.895Z,99950.44
2022-08-29T19:43:13.874Z,99952.50
2022-08-29T19:45:44.456Z,99965.28
2022-08-29T19:48:15.178Z,99955.38
2022-08-29T19:50:47.430Z,99968.25
2022-08-29T19:53:24.580Z,99970.72
2022-08-29T19:55:56.536Z,99968.16
2022-08-29T19:58:31.658Z,99969.72
2022-08-29T20:01:02.846Z,99976.25
2022-08-29T20:03:32.300Z,99970.38
2022-08-29T20:06:07.623Z,99981.31
2022-08-29T20:08:37.014Z,99982.03
2022-08-29T20:11:06.531Z,99993.97
2022-08-29T20:13:36.157Z,99999.28
2022-08-29T20:16:12.149Z,100001.50
2022-08-29T20:18:42.226Z,100005.34
2022-08-29T20:21:14.908Z,99983.34
2022-08-29T20:23:49.628Z,100004.03
2022-08-29T20:26:20.818Z,100012.81
2022-08-29T20:28:50.899Z,100012.22
2022-08-29T20:31:20.020Z,100011.66
2022-08-29T20:33:49.398Z,100008.59
2022-08-29T20:36:39.052Z,100014.03
2022-08-29T20:39:09.379Z,100016.66
2022-08-29T20:41:38.207Z,100004.44
2022-08-29T20:44:10.020Z,100022.34
2022-08-29T20:46:41.162Z,100018.19
2022-08-29T20:49:10.138Z,100034.34
2022-08-29T20:51:44.152Z,100040.22
2022-08-29T20:54:14.208Z,100035.59
2022-08-29T20:56:43.527Z,100030.53
2022-08-29T20:59:12.381Z,100033.34
2022-08-29T21:01:41.856Z,100051.63
2022-08-29T21:04:28.457Z,100051.81
2022-08-29T21:07:00.277Z,100051.81
2022-08-29T21:09:29.773Z,100043.50
2022-08-29T21:11:58.268Z,100038.91
2022-08-29T21:14:27.510Z,100053.66
2022-08-29T21:16:58.542Z,100042.75
2022-08-29T21:19:30.213Z,100056.53
2022-08-29T21:22:00.977Z,100003.81
2022-08-29T21:24:30.916Z,100049.41
2022-08-29T21:26:59.698Z,100065.69
2022-08-29T21:29:28.793Z,100061.25
2022-08-29T21:31:57.610Z,100065.84
2022-08-29T21:34:26.863Z,100037.69
2022-08-29T21:36:55.697Z,100065.59
2022-08-29T21:39:28.733Z,100033.50
2022-08-29T21:42:02.598Z,100057.72
2022-08-29T21:44:32.553Z,100063.34
2022-08-29T21:47:01.438Z,100079.78
2022-08-29T21:49:31.528Z,100071.66
2022-08-29T21:52:01.005Z,100082.59
2022-08-29T21:54:38.947Z,100080.94
2022-08-29T21:57:07.170Z,100084.44
2022-08-29T21:59:35.735Z,100068.66
2022-08-29T22:02:04.360Z,100022.94
2022-08-29T22:04:34.502Z,100085.94
2022-08-29T22:07:03.045Z,100063.69
2022-08-29T22:09:33.386Z,100080.66
2022-08-29T22:12:03.947Z,100076.00
2022-08-29T22:14:49.971Z,100061.44
2022-08-29T22:17:18.784Z,100078.19
2022-08-29T22:19:47.578Z,100085.66
2022-08-29T22:22:16.083Z,100086.81
2022-08-29T22:24:46.529Z,100066.25
2022-08-29T22:27:15.184Z,100048.88
2022-08-29T22:29:43.918Z,100084.34
2022-08-29T22:32:23.080Z,100080.19
2022-08-29T22:34:51.680Z,100082.69
2022-08-29T22:37:20.559Z,100078.38
2022-08-29T22:39:50.543Z,100077.84
2022-08-29T22:42:19.358Z,100039.25
2022-08-29T22:45:03.191Z,100076.22
2022-08-29T22:47:32.554Z,100051.84
2022-08-29T22:50:01.136Z,100071.25
2022-08-29T22:52:30.102Z,100059.16
2022-08-29T22:55:00.221Z,100057.47
2022-08-29T22:57:28.916Z,100079.53
2022-08-29T22:59:57.408Z,100072.06
2022-08-29T23:02:26.018Z,100083.19
2022-08-29T23:04:54.622Z,100076.88
2022-08-29T23:07:23.127Z,100072.56
2022-08-29T23:09:51.902Z,100071.56
2022-08-29T23:12:21.791Z,100070.56
2022-08-29T23:14:50.447Z,100074.31
2022-08-29T23:17:20.226Z,100034.53
2022-08-29T23:19:49.886Z,100032.88
2022-08-29T23:22:18.938Z,100036.53
2022-08-29T23:24:57.802Z,100072.84
2022-08-29T23:27:28.957Z,100027.53
2022-08-29T23:29:58.701Z,100081.28
2022-08-29T23:32:28.082Z,100068.66
2022-08-29T23:34:57.177Z,100070.63
2022-08-29T23:37:25.914Z,100071.97
2022-08-29T23:39:54.802Z,100032.16
2022-08-29T23:42:23.339Z,100065.16
2022-08-29T23:44:53.502Z,100031.81
2022-08-29T23:47:22.070Z,100072.97
2022-08-29T23:49:50.579Z,100059.66
2022-08-29T23:52:19.314Z,100067.97
2022-08-29T23:54:48.225Z,100032.81
2022-08-29T23:57:17.333Z,100033.44
